createdAt,value
2018-03-18T00:01:41.619Z,-2.80
2018-03-18T00:04:09.935Z,-2.90
2018-03-18T00:06:38.312Z,-2.90
2018-03-18T00:09:06.639Z,-2.90
2018-03-18T00:11:34.988Z,-2.80
2018-03-18T00:14:03.307Z,-2.80
2018-03-18T00:16:31.651Z,-2.80
2018-03-18T00:18:59.963Z,-2.80
2018-03-18T00:21:28.310Z,-2.80
2018-03-18T00:23:56.630Z,-2.80
2018-03-18T00:26:24.980Z,-2.80
2018-03-18T00:28:53.300Z,-2.80
2018-03-18T00:31:21.639Z,-2.80
2018-03-18T00:33:49.955Z,-2.80
2018-03-18T00:36:18.303Z,-2.80
2018-03-18T00:38:46.632Z,-2.80
2018-03-18T00:41:14.970Z,-2.80
2018-03-18T00:43:43.292Z,-2.80
2018-03-18T00:46:11.638Z,-2.80
2018-03-18T00:48:39.967Z,-2.80
2018-03-18T00:51:08.338Z,-2.80
2018-03-18T00:53:36.651Z,-2.80
2018-03-18T00:56:04.991Z,-2.80
2018-03-18T00:58:33.310Z,-2.80
2018-03-18T01:01:01.660Z,-2.80
2018-03-18T01:03:29.981Z,-2.80
2018-03-18T01:05:58.337Z,-2.80
2018-03-18T01:08:26.650Z,-2.70
2018-03-18T01:10:54.991Z,-2.80
2018-03-18T01:13:23.330Z,-2.80
2018-03-18T01:15:51.687Z,-2.80
2018-03-18T01:18:20.004Z,-2.80
2018-03-18T01:20:48.327Z,-2.80
2018-03-18T01:23:16.684Z,-2.80
2018-03-18T01:25:45.006Z,-2.80
2018-03-18T01:28:13.339Z,-2.80
2018-03-18T01:30:41.654Z,-2.80
2018-03-18T01:33:09.222Z,-2.80
2018-03-18T01:35:37.545Z,-2.80
2018-03-18T01:38:05.895Z,-2.80
2018-03-18T01:40:34.220Z,-2.80
2018-03-18T01:43:02.568Z,-2.80
2018-03-18T01:45:30.887Z,-2.80
2018-03-18T01:47:59.232Z,-2.80
2018-03-18T01:50:27.562Z,-2.80
2018-03-18T01:53:07.779Z,-2.80
2018-03-18T01:55:36.115Z,-2.80
2018-03-18T01:58:04.455Z,-2.80
2018-03-18T02:00:32.822Z,-2.90
2018-03-18T02:03:01.167Z,-2.90
2018-03-18T02:05:29.483Z,-2.90
2018-03-18T02:07:57.835Z,-2.90
2018-03-18T02:10:26.159Z,-2.80
2018-03-18T02:12:54.515Z,-2.80
2018-03-18T02:15:22.831Z,-2.80
2018-03-18T02:17:51.186Z,-2.80
2018-03-18T02:20:19.515Z,-2.80
2018-03-18T02:22:47.858Z,-2.80
2018-03-18T02:25:16.182Z,-2.80
2018-03-18T02:27:44.531Z,-2.80
2018-03-18T02:30:12.851Z,-2.80
2018-03-18T02:32:41.215Z,-2.80
2018-03-18T02:35:09.549Z,-2.90
2018-03-18T02:37:37.923Z,-2.90
2018-03-18T02:40:06.244Z,-2.90
2018-03-18T02:42:34.600Z,-2.90
2018-03-18T02:45:02.915Z,-2.90
2018-03-18T02:47:31.254Z,-2.90
2018-03-18T02:49:59.584Z,-2.80
2018-03-18T02:52:27.920Z,-2.80
2018-03-18T02:54:56.253Z,-2.80
2018-03-18T02:57:24.597Z,-2.80
2018-03-18T02:59:52.919Z,-2.70
2018-03-18T03:02:21.275Z,-2.70
2018-03-18T03:04:49.594Z,-2.80
2018-03-18T03:07:17.965Z,-2.80
2018-03-18T03:09:46.281Z,-2.80
2018-03-18T03:12:14.599Z,-2.80
2018-03-18T03:14:42.939Z,-2.80
2018-03-18T03:17:11.266Z,-2.80
2018-03-18T03:19:39.621Z,-2.80
2018-03-18T03:22:07.942Z,-2.80
2018-03-18T03:24:36.275Z,-2.80
2018-03-18T03:27:04.603Z,-2.80
2018-03-18T03:29:32.973Z,-2.80
2018-03-18T03:32:01.301Z,-2.80
2018-03-18T03:34:29.643Z,-2.80
2018-03-18T03:36:57.963Z,-2.90
2018-03-18T03:39:26.303Z,-2.90
2018-03-18T03:41:54.624Z,-2.90
2018-03-18T03:44:22.967Z,-2.90
2018-03-18T03:46:51.287Z,-3.00
2018-03-18T03:49:19.636Z,-3.00
2018-03-18T03:51:47.949Z,-3.00
2018-03-18T03:54:16.287Z,-3.00
2018-03-18T03:56:44.611Z,-3.00
2018-03-18T03:59:12.951Z,-3.00
2018-03-18T04:01:41.264Z,-3.10
2018-03-18T04:04:09.615Z,-3.10
2018-03-18T04:06:37.952Z,-3.10
2018-03-18T04:09:06.291Z,-3.10
2018-03-18T04:11:34.610Z,-3.10
2018-03-18T04:14:02.951Z,-3.10
2018-03-18T04:16:31.266Z,-3.10
2018-03-18T04:18:59.619Z,-3.10
2018-03-18T04:21:27.938Z,-3.10
2018-03-18T04:23:56.283Z,-3.10
2018-03-18T04:26:23.839Z,-3.10
2018-03-18T04:28:52.211Z,-3.10
2018-03-18T04:31:20.533Z,-3.20
2018-03-18T04:33:48.873Z,-3.20
2018-03-18T04:36:17.192Z,-3.30
2018-03-18T04:38:44.762Z,-3.30
2018-03-18T04:41:13.077Z,-3.30
2018-03-18T04:43:40.659Z,-3.30
2018-03-18T04:46:08.984Z,-3.30
2018-03-18T04:48:37.330Z,-3.30
2018-03-18T04:51:05.643Z,-3.30
2018-03-18T04:53:33.959Z,-3.30
2018-03-18T04:56:02.320Z,-3.30
2018-03-18T04:58:30.636Z,-3.30
2018-03-18T05:00:58.975Z,-3.30
2018-03-18T05:03:27.298Z,-3.30
2018-03-18T05:05:54.884Z,-3.30
2018-03-18T05:08:23.195Z,-3.30
2018-03-18T05:10:51.541Z,-3.30
2018-03-18T05:13:19.865Z,-3.30
2018-03-18T05:15:48.203Z,-3.30
2018-03-18T05:18:16.520Z,-3.30
2018-03-18T05:20:44.878Z,-3.40
2018-03-18T05:23:13.194Z,-3.40
2018-03-18T05:25:41.541Z,-3.40
2018-03-18T05:28:09.863Z,-3.40
2018-03-18T05:30:38.206Z,-3.40
2018-03-18T05:33:06.522Z,-3.40
2018-03-18T05:35:34.863Z,-3.40
2018-03-18T05:38:03.211Z,-3.40
2018-03-18T05:40:31.559Z,-3.40
2018-03-18T05:42:59.883Z,-3.40
2018-03-18T05:45:28.242Z,-3.40
2018-03-18T05:47:56.554Z,-3.50
2018-03-18T05:50:24.894Z,-3.50
2018-03-18T05:52:53.210Z,-3.50
2018-03-18T05:55:21.548Z,-3.50
2018-03-18T05:57:49.879Z,-3.50
2018-03-18T06:00:18.224Z,-3.50
2018-03-18T06:02:46.544Z,-3.40
2018-03-18T06:05:14.887Z,-3.40
2018-03-18T06:07:43.212Z,-3.40
2018-03-18T06:10:11.556Z,-3.40
2018-03-18T06:12:39.878Z,-3.40
2018-03-18T06:15:08.216Z,-3.40
2018-03-18T06:17:36.542Z,-3.40
2018-03-18T06:20:04.882Z,-3.40
2018-03-18T06:22:33.205Z,-3.40
2018-03-18T06:25:01.611Z,-3.30
2018-03-18T06:27:29.911Z,-3.30
2018-03-18T06:29:58.250Z,-3.30
2018-03-18T06:32:26.568Z,-3.30
2018-03-18T06:34:54.878Z,-3.30
2018-03-18T06:37:23.223Z,-3.30
2018-03-18T06:39:51.540Z,-3.30
2018-03-18T06:42:19.888Z,-3.30
2018-03-18T06:44:48.204Z,-3.20
2018-03-18T06:47:16.567Z,-3.20
2018-03-18T06:49:44.874Z,-3.20
2018-03-18T06:52:13.214Z,-3.10
2018-03-18T06:54:41.535Z,-3.10
2018-03-18T06:57:09.884Z,-3.00
2018-03-18T06:59:38.202Z,-3.00
2018-03-18T07:02:06.541Z,-3.00
2018-03-18T07:04:34.875Z,-2.90
2018-03-18T07:07:03.274Z,-2.80
2018-03-18T07:09:31.588Z,-2.80
2018-03-18T07:11:59.938Z,-2.80
2018-03-18T07:14:27.496Z,-2.80
2018-03-18T07:16:55.881Z,-2.80
2018-03-18T07:19:24.195Z,-2.80
2018-03-18T07:21:52.542Z,-2.80
2018-03-18T07:24:20.854Z,-2.80
2018-03-18T07:26:49.201Z,-2.70
2018-03-18T07:29:17.523Z,-2.70
2018-03-18T07:31:45.885Z,-2.70
2018-03-18T07:34:14.207Z,-2.60
2018-03-18T07:36:42.539Z,-2.60
2018-03-18T07:39:10.912Z,-2.60
2018-03-18T07:41:39.229Z,-2.60
2018-03-18T07:44:07.546Z,-2.60
2018-03-18T07:46:35.899Z,-2.70
2018-03-18T07:49:04.227Z,-2.70
2018-03-18T07:51:32.596Z,-2.60
2018-03-18T07:54:00.922Z,-2.60
2018-03-18T07:56:29.262Z,-2.50
2018-03-18T07:58:57.610Z,-2.50
2018-03-18T08:01:25.942Z,-2.50
2018-03-18T08:03:54.251Z,-2.50
2018-03-18T08:06:22.591Z,-2.50
2018-03-18T08:08:50.915Z,-2.50
2018-03-18T08:11:19.272Z,-2.50
2018-03-18T08:13:47.594Z,-2.60
2018-03-18T08:16:15.907Z,-2.60
2018-03-18T08:18:44.248Z,-2.60
2018-03-18T08:21:12.577Z,-2.60
2018-03-18T08:23:40.150Z,-2.60
2018-03-18T08:26:08.470Z,-2.50
2018-03-18T08:28:36.815Z,-2.40
2018-03-18T08:31:05.137Z,-2.30
2018-03-18T08:33:33.475Z,-2.20
2018-03-18T08:36:01.795Z,-2.20
2018-03-18T08:38:30.134Z,-2.20
2018-03-18T08:40:58.455Z,-2.20
2018-03-18T08:43:26.794Z,-2.30
2018-03-18T08:45:55.111Z,-2.30
2018-03-18T08:48:23.450Z,-2.20
2018-03-18T08:50:51.772Z,-2.10
2018-03-18T08:53:20.132Z,-2.10
2018-03-18T08:55:48.452Z,-2.10
2018-03-18T08:58:16.794Z,-2.00
2018-03-18T09:00:45.112Z,-2.00
2018-03-18T09:03:13.458Z,-1.80
2018-03-18T09:05:41.780Z,-1.60
2018-03-18T09:08:10.131Z,-1.60
2018-03-18T09:10:38.460Z,-1.60
2018-03-18T09:13:06.803Z,-1.60
2018-03-18T09:15:35.125Z,-1.60
2018-03-18T09:18:03.458Z,-1.50
2018-03-18T09:20:31.778Z,-1.60
2018-03-18T09:23:00.161Z,-1.70
2018-03-18T09:25:28.465Z,-1.80
2018-03-18T09:27:56.830Z,-1.80
2018-03-18T09:30:25.150Z,-1.90
2018-03-18T09:32:53.498Z,-1.90
2018-03-18T09:35:21.816Z,-1.80
2018-03-18T09:37:50.160Z,-1.80
2018-03-18T09:40:18.481Z,-1.70
2018-03-18T09:42:46.830Z,-1.70
2018-03-18T09:45:15.156Z,-1.70
2018-03-18T09:47:43.491Z,-1.60
2018-03-18T09:50:11.844Z,-1.60
2018-03-18T09:52:40.187Z,-1.60
2018-03-18T09:55:08.501Z,-1.50
2018-03-18T09:57:36.820Z,-1.20
2018-03-18T10:00:05.165Z,-1.00
2018-03-18T10:02:33.505Z,-1.00
2018-03-18T10:05:01.847Z,-1.00
2018-03-18T10:07:30.174Z,-1.20
2018-03-18T10:09:58.541Z,-1.20
2018-03-18T10:12:26.857Z,-1.20
2018-03-18T10:14:55.194Z,-1.40
2018-03-18T10:17:23.511Z,-1.50
2018-03-18T10:19:51.856Z,-1.60
2018-03-18T10:22:20.177Z,-1.60
2018-03-18T10:24:48.529Z,-1.70
2018-03-18T10:27:16.852Z,-1.50
2018-03-18T10:29:45.197Z,-1.40
2018-03-18T10:32:13.512Z,-1.40
2018-03-18T10:34:41.849Z,-1.50
2018-03-18T10:37:10.176Z,-1.50
2018-03-18T10:39:38.554Z,-1.40
2018-03-18T10:42:06.925Z,-1.20
2018-03-18T10:44:35.252Z,-1.20
2018-03-18T10:47:03.588Z,-1.10
2018-03-18T10:49:31.938Z,-1.30
2018-03-18T10:52:00.268Z,-1.30
2018-03-18T10:54:28.613Z,-1.30
2018-03-18T10:56:56.934Z,-1.30
2018-03-18T10:59:25.276Z,-1.40
2018-03-18T11:01:55.347Z,-1.40
2018-03-18T11:04:23.699Z,-1.50
2018-03-18T11:06:52.023Z,-1.60
2018-03-18T11:09:20.375Z,-1.70
2018-03-18T11:11:48.709Z,-1.60
2018-03-18T11:14:17.056Z,-1.60
2018-03-18T11:16:45.488Z,-1.70
2018-03-18T11:19:13.842Z,-1.60
2018-03-18T11:21:42.207Z,-1.50
2018-03-18T11:24:10.692Z,-1.40
2018-03-18T11:26:39.110Z,-1.40
2018-03-18T11:29:07.443Z,-1.40
2018-03-18T11:31:35.760Z,-1.40
2018-03-18T11:34:04.116Z,-1.40
2018-03-18T11:36:32.434Z,-1.40
2018-03-18T11:39:00.758Z,-1.30
2018-03-18T11:41:29.094Z,-1.20
2018-03-18T11:43:57.406Z,-1.20
2018-03-18T11:46:25.736Z,-1.30
2018-03-18T11:48:54.052Z,-1.30
2018-03-18T11:51:22.401Z,-1.20
2018-03-18T11:53:50.716Z,-1.20
2018-03-18T11:56:19.062Z,-1.10
2018-03-18T11:58:47.391Z,-1.10
2018-03-18T12:01:15.752Z,-1.00
2018-03-18T12:03:44.071Z,-1.00
2018-03-18T12:06:12.420Z,-1.10
2018-03-18T12:08:52.644Z,-1.10
2018-03-18T12:11:20.992Z,-0.90
2018-03-18T12:13:49.324Z,-0.80
2018-03-18T12:16:17.667Z,-0.90
2018-03-18T12:18:45.992Z,-0.80
2018-03-18T12:21:14.339Z,-0.70
2018-03-18T12:23:42.656Z,-0.90
2018-03-18T12:26:10.990Z,-0.90
2018-03-18T12:28:39.306Z,-1.00
2018-03-18T12:31:07.652Z,-0.90
2018-03-18T12:33:35.971Z,-0.90
2018-03-18T12:36:04.311Z,-0.80
2018-03-18T12:38:32.622Z,-0.80
2018-03-18T12:41:00.964Z,-0.70
2018-03-18T12:43:30.226Z,-0.80
2018-03-18T12:45:58.633Z,-0.90
2018-03-18T12:48:27.010Z,-0.90
2018-03-18T12:50:55.357Z,-0.80
2018-03-18T12:53:23.697Z,-0.80
2018-03-18T12:55:52.039Z,-0.80
2018-03-18T12:58:20.363Z,-0.80
2018-03-18T13:00:48.707Z,-0.90
2018-03-18T13:03:17.032Z,-1.00
2018-03-18T13:05:45.367Z,-0.90
2018-03-18T13:08:13.734Z,-1.00
2018-03-18T13:10:42.053Z,-1.00
2018-03-18T13:13:10.423Z,-1.00
2018-03-18T13:15:38.746Z,-1.20
2018-03-18T13:18:07.099Z,-1.10
2018-03-18T13:20:35.443Z,-1.20
2018-03-18T13:23:03.795Z,-1.20
2018-03-18T13:25:32.120Z,-1.10
2018-03-18T13:28:00.462Z,-1.00
2018-03-18T13:30:28.788Z,-1.00
2018-03-18T13:32:57.137Z,-1.00
2018-03-18T13:35:25.459Z,-1.10
2018-03-18T13:37:53.798Z,-1.10
2018-03-18T13:40:22.119Z,-1.00
2018-03-18T13:42:50.455Z,-1.10
2018-03-18T13:45:18.781Z,-1.10
2018-03-18T13:47:47.127Z,-1.10
2018-03-18T13:50:15.467Z,-1.10
2018-03-18T13:52:43.812Z,-1.10
2018-03-18T13:55:12.144Z,-1.00
2018-03-18T13:57:40.486Z,-0.90
2018-03-18T14:00:08.838Z,-0.90
2018-03-18T14:02:37.167Z,-0.80
2018-03-18T14:05:05.492Z,-0.70
2018-03-18T14:07:33.827Z,-0.60
2018-03-18T14:10:02.147Z,-0.50
2018-03-18T14:12:30.491Z,-0.50
2018-03-18T14:14:58.805Z,-0.30
2018-03-18T14:17:27.149Z,-0.30
2018-03-18T14:19:55.472Z,-0.40
2018-03-18T14:22:23.816Z,-0.40
2018-03-18T14:24:52.147Z,-0.40
2018-03-18T14:27:19.731Z,-0.50
2018-03-18T14:29:48.056Z,-0.40
2018-03-18T14:32:16.416Z,-0.30
2018-03-18T14:34:44.753Z,-0.40
2018-03-18T14:37:13.099Z,-0.40
2018-03-18T14:39:41.420Z,-0.30
2018-03-18T14:42:09.764Z,-0.30
2018-03-18T14:44:38.086Z,-0.20
2018-03-18T14:47:06.423Z,-0.40
2018-03-18T14:49:34.730Z,-0.40
2018-03-18T14:52:03.083Z,-0.40
2018-03-18T14:54:31.407Z,-0.30
2018-03-18T14:56:59.756Z,-0.20
2018-03-18T14:59:28.075Z,-0.20
2018-03-18T15:01:56.397Z,-0.10
2018-03-18T15:04:24.798Z,-0.10
2018-03-18T15:06:53.131Z,-0.10
2018-03-18T15:09:21.472Z,-0.10
2018-03-18T15:11:49.795Z,-0.10
2018-03-18T15:14:18.147Z,-0.10
2018-03-18T15:16:46.466Z,-0.10
2018-03-18T15:19:14.814Z,-0.10
2018-03-18T15:21:43.127Z,-0.10
2018-03-18T15:24:11.468Z,-0.10
2018-03-18T15:26:39.803Z,-0.10
2018-03-18T15:29:08.147Z,-0.10
2018-03-18T15:31:36.474Z,-0.10
2018-03-18T15:34:04.872Z,0.00
2018-03-18T15:36:33.209Z,0.00
2018-03-18T15:39:01.547Z,0.00
2018-03-18T15:41:29.871Z,0.10
2018-03-18T15:43:58.205Z,0.10
2018-03-18T15:46:26.528Z,0.00
2018-03-18T15:48:54.867Z,0.00
2018-03-18T15:51:23.186Z,-0.10
2018-03-18T15:53:51.534Z,-0.20
2018-03-18T15:56:19.847Z,-0.30
2018-03-18T15:58:48.210Z,-0.40
2018-03-18T16:01:16.560Z,-0.40
2018-03-18T16:03:44.922Z,-0.50
2018-03-18T16:08:46.983Z,-0.50
2018-03-18T16:11:15.298Z,-0.50
2018-03-18T16:13:42.876Z,-0.50
2018-03-18T16:16:11.195Z,-0.60
2018-03-18T16:18:39.541Z,-0.60
2018-03-18T16:21:07.886Z,-0.70
2018-03-18T16:23:36.226Z,-0.70
2018-03-18T16:26:04.553Z,-0.80
2018-03-18T16:28:32.900Z,-0.80
2018-03-18T16:31:22.030Z,-0.80
2018-03-18T16:33:50.381Z,-0.80
2018-03-18T16:36:18.716Z,-0.80
2018-03-18T16:38:47.066Z,-0.90
2018-03-18T16:41:15.384Z,-0.90
2018-03-18T16:43:43.745Z,-0.90
2018-03-18T16:46:12.066Z,-1.00
2018-03-18T16:48:40.403Z,-1.00
2018-03-18T16:51:08.724Z,-1.00
2018-03-18T16:53:37.062Z,-1.00
2018-03-18T16:56:05.375Z,-1.00
2018-03-18T16:58:33.707Z,-1.10
2018-03-18T17:01:02.027Z,-1.10
2018-03-18T17:03:30.360Z,-1.20
2018-03-18T17:05:58.703Z,-1.20
2018-03-18T17:08:27.014Z,-1.30
2018-03-18T17:10:55.350Z,-1.30
2018-03-18T17:13:23.674Z,-1.30
2018-03-18T17:15:52.013Z,-1.30
2018-03-18T17:18:20.337Z,-1.30
2018-03-18T17:20:48.676Z,-1.30
2018-03-18T17:23:16.995Z,-1.40
2018-03-18T17:25:45.347Z,-1.40
2018-03-18T17:28:13.664Z,-1.40
2018-03-18T17:30:42.001Z,-1.40
2018-03-18T17:33:10.322Z,-1.40
2018-03-18T17:35:38.692Z,-1.50
2018-03-18T17:38:07.015Z,-1.50
2018-03-18T17:40:35.385Z,-1.40
2018-03-18T17:43:03.712Z,-1.40
2018-03-18T17:45:43.922Z,-1.40
2018-03-18T17:48:24.078Z,-1.50
2018-03-18T17:51:04.390Z,-1.50
2018-03-18T17:53:44.441Z,-1.60
2018-03-18T17:56:24.656Z,-1.60
2018-03-18T17:58:53.002Z,-1.60
2018-03-18T18:01:21.344Z,-1.60
2018-03-18T18:03:49.663Z,-1.50
2018-03-18T18:06:18.011Z,-1.50
2018-03-18T18:08:46.394Z,-1.50
2018-03-18T18:11:14.911Z,-1.60
2018-03-18T18:13:43.226Z,-1.60
2018-03-18T18:16:11.603Z,-1.60
2018-03-18T18:18:39.918Z,-1.60
2018-03-18T18:21:08.317Z,-1.70
2018-03-18T18:23:36.644Z,-1.70
2018-03-18T18:26:04.987Z,-1.70
2018-03-18T18:28:33.310Z,-1.70
2018-03-18T18:31:01.648Z,-1.70
2018-03-18T18:33:29.971Z,-1.70
2018-03-18T18:35:58.303Z,-1.70
2018-03-18T18:38:26.613Z,-1.70
2018-03-18T18:40:55.004Z,-1.70
2018-03-18T18:43:23.417Z,-1.70
2018-03-18T18:45:51.786Z,-1.70
2018-03-18T18:48:20.180Z,-1.70
2018-03-18T18:50:48.523Z,-1.60
2018-03-18T18:53:16.837Z,-1.60
2018-03-18T18:55:45.173Z,-1.70
2018-03-18T18:58:13.488Z,-1.70
2018-03-18T19:00:41.822Z,-1.80
2018-03-18T19:03:10.198Z,-1.70
2018-03-18T19:05:38.519Z,-1.70
2018-03-18T19:08:06.834Z,-1.70
2018-03-18T19:10:35.184Z,-1.70
2018-03-18T19:13:03.561Z,-1.80
2018-03-18T19:15:31.879Z,-1.80
2018-03-18T19:18:00.227Z,-1.80
2018-03-18T19:20:28.540Z,-1.80
2018-03-18T19:22:56.891Z,-1.90
2018-03-18T19:25:25.215Z,-1.90
2018-03-18T19:27:53.599Z,-2.00
2018-03-18T19:30:21.914Z,-2.00
2018-03-18T19:32:50.256Z,-1.90
2018-03-18T19:35:18.576Z,-2.00
2018-03-18T19:37:46.914Z,-1.90
2018-03-18T19:40:15.230Z,-1.90
2018-03-18T19:42:43.575Z,-1.90
2018-03-18T19:45:11.901Z,-1.90
2018-03-18T19:47:40.255Z,-1.90
2018-03-18T19:50:08.571Z,-2.00
2018-03-18T19:52:36.920Z,-2.00
2018-03-18T19:55:05.255Z,-1.90
2018-03-18T19:57:33.621Z,-2.00
2018-03-18T20:00:01.932Z,-2.00
2018-03-18T20:02:30.266Z,-2.00
2018-03-18T20:04:58.574Z,-2.00
2018-03-18T20:07:26.931Z,-2.10
2018-03-18T20:09:55.283Z,-2.10
2018-03-18T20:12:23.631Z,-2.00
2018-03-18T20:14:51.948Z,-2.10
2018-03-18T20:17:20.287Z,-2.10
2018-03-18T20:19:48.615Z,-2.10
2018-03-18T20:22:16.949Z,-2.10
2018-03-18T20:24:45.271Z,-2.10
2018-03-18T20:27:13.715Z,-2.10
2018-03-18T20:29:42.032Z,-2.20
2018-03-18T20:32:10.413Z,-2.20
2018-03-18T20:34:38.743Z,-2.20
2018-03-18T20:37:07.139Z,-2.10
2018-03-18T20:39:35.491Z,-2.10
2018-03-18T20:42:03.826Z,-2.00
2018-03-18T20:44:32.172Z,-2.00
2018-03-18T20:47:00.551Z,-2.00
2018-03-18T20:49:28.865Z,-2.00
2018-03-18T20:51:57.183Z,-2.10
2018-03-18T20:54:25.521Z,-2.10
2018-03-18T20:56:53.846Z,-2.10
2018-03-18T20:59:22.207Z,-2.20
2018-03-18T21:01:50.534Z,-2.20
2018-03-18T21:04:18.924Z,-2.20
2018-03-18T21:06:47.242Z,-2.20
2018-03-18T21:09:15.699Z,-2.10
2018-03-18T21:11:44.048Z,-2.20
2018-03-18T21:14:12.447Z,-2.20
2018-03-18T21:16:40.759Z,-2.20
2018-03-18T21:19:09.147Z,-2.20
2018-03-18T21:21:37.446Z,-2.20
2018-03-18T21:24:05.821Z,-2.20
2018-03-18T21:26:34.165Z,-2.20
2018-03-18T21:29:02.512Z,-2.30
2018-03-18T21:31:30.837Z,-2.20
2018-03-18T21:33:59.170Z,-2.20
2018-03-18T21:36:27.505Z,-2.20
2018-03-18T21:38:55.847Z,-2.20
2018-03-18T21:41:24.173Z,-2.30
2018-03-18T21:43:52.514Z,-2.30
2018-03-18T21:46:20.836Z,-2.30
2018-03-18T21:48:49.172Z,-2.40
2018-03-18T21:51:17.499Z,-2.30
2018-03-18T21:53:45.846Z,-2.30
2018-03-18T21:56:14.160Z,-2.30
2018-03-18T21:58:42.494Z,-2.30
2018-03-18T22:01:10.875Z,-2.40
2018-03-18T22:03:39.216Z,-2.40
2018-03-18T22:06:07.539Z,-2.40
2018-03-18T22:08:35.881Z,-2.40
2018-03-18T22:11:04.199Z,-2.40
2018-03-18T22:13:32.539Z,-2.50
2018-03-18T22:16:00.854Z,-2.50
2018-03-18T22:18:29.193Z,-2.50
2018-03-18T22:20:57.504Z,-2.60
2018-03-18T22:23:25.846Z,-2.60
2018-03-18T22:25:54.175Z,-2.60
2018-03-18T22:28:22.663Z,-2.60
2018-03-18T22:30:50.991Z,-2.60
2018-03-18T22:33:19.351Z,-2.50
2018-03-18T22:35:47.669Z,-2.50
2018-03-18T22:38:15.983Z,-2.50
2018-03-18T22:40:44.315Z,-2.50
2018-03-18T22:43:12.626Z,-2.50
2018-03-18T22:45:40.975Z,-2.50
2018-03-18T22:48:09.314Z,-2.60
2018-03-18T22:50:37.661Z,-2.60
2018-03-18T22:53:05.983Z,-2.60
2018-03-18T22:55:34.317Z,-2.60
2018-03-18T22:58:02.643Z,-2.60
2018-03-18T23:00:30.982Z,-2.60
2018-03-18T23:02:59.534Z,-2.60
2018-03-18T23:05:27.894Z,-2.60
2018-03-18T23:07:56.198Z,-2.60
2018-03-18T23:10:24.535Z,-2.60
2018-03-18T23:12:52.856Z,-2.70
2018-03-18T23:15:21.207Z,-2.70
2018-03-18T23:17:52.222Z,-2.70
2018-03-18T23:20:20.555Z,-2.70
2018-03-18T23:22:48.870Z,-2.70
2018-03-18T23:25:17.207Z,-2.70
2018-03-18T23:27:45.524Z,-2.70
2018-03-18T23:30:13.860Z,-2.70
2018-03-18T23:32:42.180Z,-2.70
2018-03-18T23:35:10.513Z,-2.70
2018-03-18T23:37:39.320Z,-2.70
2018-03-18T23:40:07.669Z,-2.70
2018-03-18T23:42:36.040Z,-2.70
2018-03-18T23:45:04.350Z,-2.70
2018-03-18T23:47:32.671Z,-2.70
2018-03-18T23:50:01.009Z,-2.70
2018-03-18T23:52:29.319Z,-2.70
2018-03-18T23:54:57.661Z,-2.70
2018-03-18T23:57:25.978Z,-2.70
2018-03-18T23:59:54.308Z,-2.70
